Time;durP1;ratioP1;P1;durP2;ratioP2;P2;SDS_P1;SDS_P2;PMS_P1;PMS_P2;Temp;Humidity;BMP_temperature;BMP_pressure;BME280_temperature;BME280_humidity;BME280_pressure;Samples;Min_cycle;Max_cycle;Signal;HPM_P1;HPM_P2
2024/03/31 00:00:21;;;;;;;2.03;1.55;;;8.60;99.90;;;;;;5014191;28;20019;-89
2024/03/31 00:02:50;;;;;;;0.30;0.30;;;8.60;99.90;;;;;;4969326;28;20042;-85
2024/03/31 00:05:17;;;;;;;2.00;1.83;;;8.70;99.90;;;;;;4970258;28;20046;-87
2024/03/31 00:07:43;;;;;;;0.75;0.75;;;8.80;99.90;;;;;;4956621;28;20042;-87
2024/03/31 00:10:09;;;;;;;2.38;2.03;;;8.90;99.90;;;;;;4986649;28;20312;-87
2024/03/31 00:12:36;;;;;;;0.70;0.70;;;8.90;99.90;;;;;;4974848;28;20041;-87
2024/03/31 00:15:02;;;;;;;1.95;1.40;;;8.90;99.90;;;;;;4989242;28;20077;-87
2024/03/31 00:17:28;;;;;;;1.10;1.10;;;8.90;99.90;;;;;;4970722;28;20057;-87
2024/03/31 00:19:55;;;;;;;1.40;1.15;;;8.90;99.90;;;;;;4972827;28;20038;-87
2024/03/31 00:22:21;;;;;;;1.55;1.45;;;8.90;99.90;;;;;;4982923;28;20030;-87
2024/03/31 00:24:47;;;;;;;0.30;0.30;;;9.00;99.90;;;;;;4972975;28;20055;-88
2024/03/31 00:27:13;;;;;;;0.50;0.50;;;9.00;99.90;;;;;;4973243;28;20041;-87
2024/03/31 00:29:40;;;;;;;1.08;0.95;;;9.00;99.90;;;;;;4974045;28;20030;-88
2024/03/31 00:32:06;;;;;;;2.25;0.65;;;9.00;99.90;;;;;;4974707;28;20065;-87
2024/03/31 00:34:33;;;;;;;0.63;0.63;;;9.00;99.90;;;;;;4987337;28;20050;-87
2024/03/31 00:36:59;;;;;;;2.17;0.93;;;8.90;99.90;;;;;;4989863;28;20038;-87
2024/03/31 00:39:25;;;;;;;1.02;0.93;;;9.00;99.90;;;;;;4986039;28;20041;-86
2024/03/31 00:41:52;;;;;;;3.15;1.83;;;8.90;99.90;;;;;;4973258;28;20041;-86
2024/03/31 00:44:18;;;;;;;2.55;2.05;;;8.90;1.00;;;;;;4972067;28;20057;-84
2024/03/31 00:46:44;;;;;;;0.85;0.85;;;8.90;1.00;;;;;;4969405;28;20042;-83
2024/03/31 00:49:11;;;;;;;0.65;0.65;;;8.90;1.00;;;;;;4989640;28;20092;-84
2024/03/31 00:51:37;;;;;;;0.45;0.45;;;8.80;59.30;;;;;;4969349;28;20035;-83
2024/03/31 00:54:03;;;;;;;12.85;1.65;;;8.90;99.90;;;;;;4972674;28;20068;-83
2024/03/31 00:56:29;;;;;;;0.55;0.55;;;8.80;99.90;;;;;;4970775;28;20049;-81
2024/03/31 00:58:56;;;;;;;1.65;1.27;;;8.80;99.90;;;;;;4971470;28;20039;-83
2024/03/31 01:01:23;;;;;;;1.95;0.50;;;8.80;99.90;;;;;;4989015;28;20037;-82
2024/03/31 01:03:49;;;;;;;1.20;1.13;;;8.80;99.90;;;;;;4973519;28;20046;-83
2024/03/31 01:06:19;;;;;;;1.58;1.48;;;8.80;99.90;;;;;;4971382;28;20364;-82
2024/03/31 01:08:50;;;;;;;0.85;0.80;;;8.80;99.90;;;;;;4975437;28;20051;-82
2024/03/31 01:11:17;;;;;;;0.93;0.90;;;8.80;99.90;;;;;;4971199;28;20352;-82
2024/03/31 01:13:47;;;;;;;3.33;1.70;;;8.80;99.90;;;;;;4972052;28;20054;-83
2024/03/31 01:16:15;;;;;;;1.38;1.27;;;8.70;99.90;;;;;;4959918;28;20382;-81
2024/03/31 01:18:42;;;;;;;0.95;0.60;;;8.70;99.90;;;;;;4973786;28;20033;-81
2024/03/31 01:21:11;;;;;;;0.85;0.68;;;8.70;99.90;;;;;;4992996;28;20046;-85
2024/03/31 01:23:44;;;;;;;1.25;1.15;;;8.70;99.90;;;;;;4990930;28;20034;-81
2024/03/31 01:26:13;;;;;;;1.92;1.40;;;8.60;99.90;;;;;;4970141;28;20038;-82
2024/03/31 01:28:39;;;;;;;1.38;0.70;;;8.60;99.90;;;;;;4989589;28;20035;-81
2024/03/31 01:31:05;;;;;;;1.00;1.00;;;8.60;99.90;;;;;;4993522;28;20042;-81
2024/03/31 01:33:31;;;;;;;5.00;2.67;;;8.60;99.90;;;;;;4974283;28;20042;-81
2024/03/31 01:36:01;;;;;;;1.02;1.02;;;8.70;99.90;;;;;;4989244;28;20046;-80
2024/03/31 01:38:27;;;;;;;0.68;0.68;;;8.70;99.90;;;;;;4975545;28;20050;-81
2024/03/31 01:40:53;;;;;;;0.50;0.50;;;8.70;99.90;;;;;;4976141;28;20034;-81
2024/03/31 01:43:20;;;;;;;1.35;1.20;;;8.70;99.90;;;;;;4992746;28;20037;-81
2024/03/31 01:45:47;;;;;;;0.55;0.55;;;8.70;99.90;;;;;;4959618;28;20050;-81
2024/03/31 01:48:14;;;;;;;0.50;0.50;;;8.70;99.90;;;;;;4974391;28;20030;-81
2024/03/31 01:50:40;;;;;;;0.32;0.32;;;8.80;99.90;;;;;;4974513;28;20038;-82
2024/03/31 01:53:07;;;;;;;0.82;0.82;;;8.70;99.90;;;;;;4967726;28;20022;-80
2024/03/31 01:55:34;;;;;;;2.70;1.42;;;8.70;99.90;;;;;;4990076;28;20054;-80
2024/03/31 01:58:00;;;;;;;13.98;1.58;;;8.70;99.90;;;;;;4989512;28;20022;-80
2024/03/31 02:00:27;;;;;;;0.55;0.55;;;8.70;99.90;;;;;;4968057;28;20041;-80
2024/03/31 02:02:53;;;;;;;11.55;1.58;;;8.70;99.90;;;;;;4973498;28;20379;-80
2024/03/31 02:05:19;;;;;;;1.23;1.13;;;8.70;99.90;;;;;;4971248;28;20049;-79
2024/03/31 02:07:46;;;;;;;0.30;0.30;;;8.70;99.90;;;;;;4991368;28;20038;-79
2024/03/31 02:10:12;;;;;;;0.63;0.60;;;8.70;99.90;;;;;;4988786;28;20029;-80
2024/03/31 02:12:38;;;;;;;2.28;0.68;;;8.60;99.90;;;;;;4974308;28;20461;-78
2024/03/31 02:15:05;;;;;;;2.45;1.80;;;8.60;99.90;;;;;;4974715;28;20073;-78
2024/03/31 02:17:31;;;;;;;5.93;2.42;;;8.60;99.90;;;;;;4972172;28;20430;-79
2024/03/31 02:19:57;;;;;;;0.63;0.63;;;8.70;99.90;;;;;;4991868;28;20056;-79
2024/03/31 02:22:24;;;;;;;1.40;1.30;;;8.70;99.90;;;;;;4973255;28;20042;-78
2024/03/31 02:24:50;;;;;;;4.70;2.13;;;8.70;99.90;;;;;;4992330;28;20042;-78
2024/03/31 02:27:16;;;;;;;1.42;1.08;;;8.70;99.90;;;;;;4971792;28;20375;-78
2024/03/31 02:29:47;;;;;;;4.50;2.08;;;8.80;99.90;;;;;;4974766;28;20046;-78
2024/03/31 02:32:13;;;;;;;1.00;1.00;;;8.80;99.90;;;;;;4971573;28;20042;-78
2024/03/31 02:34:39;;;;;;;0.95;0.88;;;8.80;99.90;;;;;;4991409;28;20053;-78
2024/03/31 02:37:05;;;;;;;0.63;0.63;;;8.80;99.90;;;;;;4992549;28;20478;-79
2024/03/31 02:39:32;;;;;;;1.40;1.33;;;8.80;99.90;;;;;;4992422;28;20617;-77
2024/03/31 02:41:58;;;;;;;0.90;0.90;;;8.80;99.90;;;;;;4992570;28;20033;-78
2024/03/31 02:44:24;;;;;;;1.23;1.13;;;8.80;99.90;;;;;;4958624;28;20042;-78
2024/03/31 02:46:51;;;;;;;0.50;0.50;;;8.80;99.90;;;;;;4975546;28;20039;-78
2024/03/31 02:49:17;;;;;;;1.52;1.42;;;8.80;99.90;;;;;;4991145;28;20347;-78
2024/03/31 02:51:44;;;;;;;1.48;1.40;;;8.80;99.90;;;;;;4991686;28;20046;-77
2024/03/31 02:54:10;;;;;;;1.83;1.60;;;8.80;99.90;;;;;;4974661;28;20058;-76
2024/03/31 02:56:37;;;;;;;4.18;1.52;;;8.80;99.90;;;;;;4974949;28;20046;-77
2024/03/31 02:59:03;;;;;;;0.75;0.75;;;8.80;99.90;;;;;;4974235;28;20050;-78
2024/03/31 03:01:33;;;;;;;1.27;1.20;;;8.90;99.90;;;;;;4974167;28;20283;-77
2024/03/31 03:03:59;;;;;;;0.95;0.95;;;8.90;99.90;;;;;;4992560;28;20374;-76
2024/03/31 03:06:26;;;;;;;2.00;1.40;;;8.90;99.90;;;;;;4991727;28;20030;-77
2024/03/31 03:08:53;;;;;;;1.13;0.63;;;8.90;99.90;;;;;;4991606;28;20022;-77
2024/03/31 03:11:20;;;;;;;0.57;0.57;;;8.90;99.90;;;;;;4974234;28;20042;-77
2024/03/31 03:13:46;;;;;;;10.05;3.15;;;8.80;99.90;;;;;;4992281;28;20055;-76
2024/03/31 03:16:14;;;;;;;2.22;1.45;;;8.80;99.90;;;;;;4972131;28;20038;-78
2024/03/31 03:18:40;;;;;;;0.95;0.95;;;8.80;99.90;;;;;;4991376;28;20364;-78
2024/03/31 03:21:07;;;;;;;1.08;1.02;;;8.80;99.90;;;;;;4992352;28;20034;-77
2024/03/31 03:23:33;;;;;;;5.03;2.03;;;8.80;99.90;;;;;;4974263;28;20037;-78
2024/03/31 03:25:59;;;;;;;1.63;1.52;;;8.70;99.90;;;;;;4973329;28;20051;-78
2024/03/31 03:28:26;;;;;;;2.20;1.48;;;8.70;99.90;;;;;;4967200;28;20047;-78
2024/03/31 03:30:54;;;;;;;0.63;0.45;;;8.70;99.90;;;;;;4986494;28;20042;-77
2024/03/31 03:33:23;;;;;;;1.13;1.02;;;8.60;99.90;;;;;;4972212;28;20042;-78
2024/03/31 03:35:54;;;;;;;3.90;1.85;;;8.70;99.90;;;;;;4989845;28;20046;-78
2024/03/31 03:38:21;;;;;;;1.90;1.38;;;8.70;99.90;;;;;;4971920;28;20046;-78
2024/03/31 03:40:52;;;;;;;2.35;1.95;;;8.70;99.90;;;;;;4973546;28;20446;-78
2024/03/31 03:43:19;;;;;;;0.35;0.35;;;8.70;99.90;;;;;;4958269;28;20034;-78
2024/03/31 03:45:50;;;;;;;1.85;1.75;;;8.70;99.90;;;;;;4973925;28;20042;-77
2024/03/31 03:48:17;;;;;;;0.95;0.95;;;8.70;99.90;;;;;;4971601;28;20042;-78
2024/03/31 03:50:43;;;;;;;7.78;1.67;;;8.70;99.90;;;;;;4972080;28;20042;-78
2024/03/31 03:53:09;;;;;;;5.18;1.98;;;8.70;99.90;;;;;;4953778;28;20030;-77
2024/03/31 03:55:35;;;;;;;1.20;1.08;;;8.70;99.90;;;;;;4966512;28;20325;-78
2024/03/31 03:58:02;;;;;;;1.27;1.15;;;8.70;99.90;;;;;;4984164;28;20038;-78
2024/03/31 04:00:28;;;;;;;2.20;1.20;;;8.70;99.90;;;;;;4972632;28;20039;-79
2024/03/31 04:02:56;;;;;;;1.63;1.52;;;8.70;99.90;;;;;;4953287;28;20329;-78
2024/03/31 04:05:22;;;;;;;5.60;1.35;;;8.70;99.90;;;;;;4973509;28;20061;-78
2024/03/31 04:07:48;;;;;;;0.50;0.45;;;8.60;99.90;;;;;;4973173;28;20050;-77
2024/03/31 04:10:15;;;;;;;0.60;0.60;;;8.70;99.90;;;;;;4974067;28;20046;-78
2024/03/31 04:12:41;;;;;;;8.48;3.58;;;8.60;99.90;;;;;;4958104;28;20057;-77
2024/03/31 04:15:08;;;;;;;0.60;0.60;;;8.60;99.90;;;;;;4986353;28;20045;-78
2024/03/31 04:17:36;;;;;;;0.63;0.63;;;8.60;99.90;;;;;;4991542;28;20471;-77
2024/03/31 04:20:03;;;;;;;0.70;0.65;;;8.60;99.90;;;;;;4988167;28;20042;-78
2024/03/31 04:22:29;;;;;;;0.52;0.52;;;8.50;99.90;;;;;;5008036;28;20041;-77
2024/03/31 04:24:56;;;;;;;0.65;0.65;;;8.50;99.90;;;;;;4993407;28;20065;-76
2024/03/31 04:27:22;;;;;;;0.50;0.50;;;8.50;99.90;;;;;;5009127;28;20022;-78
2024/03/31 04:29:48;;;;;;;0.43;0.43;;;8.40;99.90;;;;;;4992183;28;20039;-78
2024/03/31 04:32:15;;;;;;;1.45;1.38;;;8.40;99.90;;;;;;5007415;28;20037;-78
2024/03/31 04:34:42;;;;;;;3.95;2.83;;;8.40;99.90;;;;;;5008767;28;20038;-78
2024/03/31 04:37:08;;;;;;;2.05;1.23;;;8.40;99.90;;;;;;4992226;28;20326;-77
2024/03/31 04:39:34;;;;;;;0.98;0.93;;;8.40;99.90;;;;;;4990407;28;20381;-76
2024/03/31 04:42:01;;;;;;;1.02;0.93;;;8.40;99.90;;;;;;4973958;28;20035;-77
2024/03/31 04:44:27;;;;;;;0.25;0.25;;;8.30;99.90;;;;;;5009888;28;20034;-77
2024/03/31 04:46:53;;;;;;;0.85;0.85;;;8.30;99.90;;;;;;5010267;28;20049;-78
2024/03/31 04:49:20;;;;;;;1.17;1.17;;;8.30;99.90;;;;;;4992310;28;20046;-81
2024/03/31 04:51:48;;;;;;;1.02;0.95;;;8.30;99.90;;;;;;4994880;28;20039;-77
2024/03/31 04:54:16;;;;;;;2.40;1.50;;;8.30;99.90;;;;;;4995856;28;20056;-77
2024/03/31 04:56:42;;;;;;;0.52;0.52;;;8.30;99.90;;;;;;5014257;28;20037;-77
2024/03/31 04:59:09;;;;;;;0.68;0.65;;;8.30;99.90;;;;;;4995454;28;20378;-77
2024/03/31 05:01:36;;;;;;;3.67;1.45;;;8.30;99.90;;;;;;4995081;28;20037;-77
2024/03/31 05:04:02;;;;;;;2.00;0.50;;;8.40;99.90;;;;;;4987118;28;20053;-78
2024/03/31 05:06:28;;;;;;;1.25;1.15;;;8.40;99.90;;;;;;5011786;28;20049;-77
2024/03/31 05:08:54;;;;;;;4.47;1.40;;;8.50;99.90;;;;;;4978364;28;20352;-78
2024/03/31 05:11:21;;;;;;;4.32;1.98;;;8.50;99.90;;;;;;4994864;28;20038;-81
2024/03/31 05:13:48;;;;;;;0.43;0.43;;;8.50;99.90;;;;;;5006932;28;20058;-77
2024/03/31 05:16:17;;;;;;;4.07;3.78;;;8.60;99.90;;;;;;4975046;28;20360;-77
2024/03/31 05:18:43;;;;;;;1.85;1.75;;;8.60;99.90;;;;;;4991638;28;20030;-78
2024/03/31 05:21:15;;;;;;;2.42;2.22;;;8.60;99.90;;;;;;4977885;28;20383;-78
2024/03/31 05:23:45;;;;;;;2.28;2.15;;;8.70;99.90;;;;;;4992349;28;20042;-78
2024/03/31 05:26:14;;;;;;;4.07;1.90;;;8.70;99.90;;;;;;4987073;28;20047;-77
2024/03/31 05:28:42;;;;;;;1.33;1.20;;;8.70;99.90;;;;;;4974410;28;20038;-78
2024/03/31 05:31:09;;;;;;;2.13;1.50;;;8.70;99.90;;;;;;4976726;28;20042;-77
2024/03/31 05:33:55;;;;;;;1.13;1.02;;;8.70;99.90;;;;;;4954360;28;20049;-79
2024/03/31 05:36:22;;;;;;;1.48;1.42;;;8.80;99.90;;;;;;4976153;28;20050;-79
2024/03/31 05:38:49;;;;;;;0.63;0.63;;;8.80;99.90;;;;;;4976045;28;20042;-78
2024/03/31 05:41:19;;;;;;;2.67;2.47;;;8.80;99.90;;;;;;4994251;28;20089;-79
2024/03/31 05:43:46;;;;;;;1.55;1.30;;;8.80;99.90;;;;;;4975366;28;20038;-78
2024/03/31 05:46:12;;;;;;;1.73;1.63;;;8.80;99.90;;;;;;4984874;28;20138;-77
2024/03/31 05:48:38;;;;;;;3.25;2.08;;;8.80;99.90;;;;;;4974402;28;20482;-79
2024/03/31 05:51:05;;;;;;;1.60;1.50;;;8.80;99.90;;;;;;4994208;28;20034;-78
2024/03/31 05:53:34;;;;;;;1.45;1.00;;;8.80;99.90;;;;;;4976436;28;20049;-79
2024/03/31 05:56:01;;;;;;;3.60;1.73;;;8.90;99.90;;;;;;4994654;28;20046;-79
2024/03/31 05:58:28;;;;;;;1.67;1.58;;;8.90;99.90;;;;;;4973224;28;20042;-79
2024/03/31 06:00:54;;;;;;;13.32;2.63;;;9.00;99.90;;;;;;4974780;28;20053;-79
2024/03/31 06:03:25;;;;;;;0.73;0.73;;;9.00;99.90;;;;;;4991361;28;20057;-80
2024/03/31 06:05:51;;;;;;;3.78;1.58;;;9.10;99.90;;;;;;4977229;28;20038;-79
2024/03/31 06:08:18;;;;;;;0.88;0.88;;;9.20;99.90;;;;;;4976439;28;20462;-79
2024/03/31 06:10:44;;;;;;;2.50;1.92;;;9.20;99.90;;;;;;4976124;28;20042;-79
2024/03/31 06:13:10;;;;;;;2.38;2.17;;;9.20;99.90;;;;;;4976225;28;20364;-80
2024/03/31 06:15:37;;;;;;;1.27;1.05;;;9.20;99.90;;;;;;4975989;28;20042;-80
2024/03/31 06:18:03;;;;;;;2.65;2.28;;;9.30;99.90;;;;;;4993597;28;20031;-80
2024/03/31 06:20:32;;;;;;;5.60;1.85;;;9.30;99.90;;;;;;4960729;28;20034;-80
2024/03/31 06:22:59;;;;;;;2.05;1.88;;;9.30;99.90;;;;;;4975373;28;20041;-80
2024/03/31 06:25:25;;;;;;;1.50;1.40;;;9.40;99.90;;;;;;4983009;28;20030;-81
2024/03/31 06:27:54;;;;;;;0.98;0.98;;;9.60;99.90;;;;;;4977080;28;20375;-80
2024/03/31 06:30:20;;;;;;;0.90;0.90;;;9.70;99.90;;;;;;4991664;28;20039;-79
2024/03/31 06:32:46;;;;;;;2.78;2.08;;;9.90;99.90;;;;;;4982644;28;20050;-80
2024/03/31 06:35:13;;;;;;;2.70;2.45;;;10.10;99.90;;;;;;4970403;28;20053;-80
2024/03/31 06:37:39;;;;;;;2.03;1.42;;;10.40;99.90;;;;;;4983160;28;20038;-78
2024/03/31 06:40:06;;;;;;;7.53;3.97;;;10.80;99.90;;;;;;4957461;28;20065;-81
2024/03/31 06:42:33;;;;;;;2.67;1.67;;;10.80;99.90;;;;;;4981036;28;20038;-82
2024/03/31 06:44:59;;;;;;;5.35;3.40;;;10.80;99.90;;;;;;4992434;28;20038;-82
2024/03/31 06:47:25;;;;;;;2.95;1.65;;;10.70;99.90;;;;;;4973485;28;20035;-82
2024/03/31 06:49:52;;;;;;;4.25;1.98;;;10.80;99.90;;;;;;4974164;28;20046;-82
2024/03/31 06:52:18;;;;;;;1.48;1.13;;;10.80;99.90;;;;;;4975754;28;20038;-82
2024/03/31 06:54:45;;;;;;;1.83;1.63;;;10.90;99.90;;;;;;4973979;28;20050;-82
2024/03/31 06:57:11;;;;;;;2.28;2.05;;;11.00;25.80;;;;;;4957100;28;20039;-79
2024/03/31 06:59:38;;;;;;;4.45;1.08;;;11.00;1.00;;;;;;4975255;28;20030;-80
2024/03/31 07:02:04;;;;;;;5.22;2.05;;;11.10;1.00;;;;;;4975334;28;20484;-80
2024/03/31 07:04:30;;;;;;;3.08;1.40;;;11.10;1.00;;;;;;4973172;28;20030;-80
2024/03/31 07:06:56;;;;;;;0.43;0.43;;;11.00;99.90;;;;;;4992236;28;20034;-80
2024/03/31 07:09:22;;;;;;;2.88;1.25;;;11.20;1.00;;;;;;4976032;28;20038;-83
2024/03/31 07:11:49;;;;;;;12.52;2.80;;;11.10;1.00;;;;;;4974863;28;20046;-82
2024/03/31 07:14:15;;;;;;;1.85;1.75;;;11.30;99.90;;;;;;4972865;28;20047;-82
2024/03/31 07:16:44;;;;;;;2.83;1.30;;;11.80;1.00;;;;;;4970495;28;20042;-84
2024/03/31 07:19:11;;;;;;;1.23;1.13;;;11.80;99.90;;;;;;4973353;28;20491;-84
2024/03/31 07:21:37;;;;;;;2.40;1.52;;;11.70;99.90;;;;;;4975238;28;20038;-83
2024/03/31 07:24:03;;;;;;;10.32;1.23;;;11.40;99.90;;;;;;4989798;28;20030;-83
2024/03/31 07:26:29;;;;;;;5.57;1.48;;;11.60;99.90;;;;;;4977489;28;20046;-83
2024/03/31 07:28:56;;;;;;;1.70;0.98;;;11.70;99.90;;;;;;4986775;28;20050;-82
2024/03/31 07:31:24;;;;;;;5.45;0.68;;;11.80;99.90;;;;;;4971994;28;20046;-82
2024/03/31 07:33:52;;;;;;;0.70;0.70;;;12.20;99.90;;;;;;4957482;28;20383;-82
2024/03/31 07:36:19;;;;;;;0.93;0.77;;;12.40;65.00;;;;;;4972612;28;20051;-84
2024/03/31 07:38:45;;;;;;;0.85;0.57;;;12.30;99.90;;;;;;4989910;28;20454;-83
2024/03/31 07:41:12;;;;;;;1.58;1.08;;;12.30;86.30;;;;;;4971023;28;20038;-83
2024/03/31 07:43:38;;;;;;;0.93;0.93;;;12.10;91.50;;;;;;4987279;28;20030;-82
2024/03/31 07:46:04;;;;;;;5.53;2.92;;;12.20;95.30;;;;;;4991534;28;20053;-80
2024/03/31 07:48:30;;;;;;;2.10;1.90;;;12.30;92.50;;;;;;4970939;28;20030;-82
2024/03/31 07:50:56;;;;;;;0.30;0.30;;;12.40;36.20;;;;;;4973273;28;20042;-82
2024/03/31 07:53:23;;;;;;;0.90;0.85;;;12.40;20.90;;;;;;4975558;28;20039;-83
2024/03/31 07:55:59;;;;;;;4.72;1.55;;;12.40;49.80;;;;;;4986765;28;20046;-82
2024/03/31 07:58:26;;;;;;;0.55;0.55;;;12.30;43.90;;;;;;4989079;28;20479;-83
2024/03/31 08:00:56;;;;;;;1.27;1.13;;;12.40;53.40;;;;;;4972147;28;20049;-83
2024/03/31 08:03:23;;;;;;;3.95;1.20;;;12.50;71.90;;;;;;4989694;28;20510;-83
2024/03/31 08:05:49;;;;;;;1.10;0.93;;;12.60;64.20;;;;;;4990502;28;20245;-83
2024/03/31 08:08:16;;;;;;;1.38;1.27;;;12.90;12.60;;;;;;4969800;28;20066;-84
2024/03/31 08:10:43;;;;;;;2.03;1.17;;;13.00;1.10;;;;;;4958246;28;20075;-86
2024/03/31 08:13:10;;;;;;;2.42;0.95;;;13.40;1.00;;;;;;4990987;28;20374;-84
2024/03/31 08:15:36;;;;;;;0.80;0.77;;;13.90;1.00;;;;;;4970821;28;20447;-85
2024/03/31 08:18:02;;;;;;;4.07;2.35;;;14.20;1.00;;;;;;4990300;28;20042;-85
2024/03/31 08:20:30;;;;;;;0.30;0.30;;;14.10;99.90;;;;;;4974513;28;20375;-83
2024/03/31 08:22:56;;;;;;;0.57;0.57;;;14.00;99.90;;;;;;4973992;28;20041;-76
2024/03/31 08:25:22;;;;;;;7.57;2.00;;;14.10;99.90;;;;;;4991538;28;20038;-85
2024/03/31 08:27:49;;;;;;;1.48;1.38;;;14.00;99.90;;;;;;4989023;28;20348;-85
2024/03/31 08:30:15;;;;;;;0.40;0.40;;;14.30;1.00;;;;;;4994934;28;20026;-85
2024/03/31 08:32:41;;;;;;;0.40;0.40;;;14.50;99.90;;;;;;4991234;28;20034;-85
2024/03/31 08:35:07;;;;;;;6.88;1.45;;;14.40;99.90;;;;;;4993757;28;20284;-85
2024/03/31 08:37:33;;;;;;;3.17;1.90;;;14.30;99.90;;;;;;4987676;28;20046;-86
2024/03/31 08:40:00;;;;;;;0.30;0.30;;;14.30;99.90;;;;;;4966937;28;20053;-86
2024/03/31 08:42:59;;;;;;;0.47;0.47;;;14.10;99.90;;;;;;4989982;28;20064;-87
2024/03/31 08:45:26;;;;;;;0.22;0.22;;;14.60;99.90;;;;;;4987605;28;20045;-85
2024/03/31 08:47:55;;;;;;;0.47;0.47;;;14.60;99.90;;;;;;4999910;28;20034;-89
2024/03/31 08:50:23;;;;;;;1.45;0.77;;;14.90;99.90;;;;;;4975083;28;20045;-86
2024/03/31 08:52:49;;;;;;;0.22;0.22;;;15.10;99.90;;;;;;4977758;28;20042;-86
2024/03/31 08:55:15;;;;;;;1.45;1.13;;;15.30;1.00;;;;;;4995626;28;20038;-84
2024/03/31 08:57:42;;;;;;;0.60;0.60;;;15.10;1.00;;;;;;4988467;28;20027;-86
2024/03/31 09:00:09;;;;;;;0.60;0.60;;;15.20;39.90;;;;;;4992483;28;20022;-84
2024/03/31 09:02:37;;;;;;;0.20;0.20;;;15.30;1.00;;;;;;4992518;28;20045;-85
2024/03/31 09:05:04;;;;;;;5.35;0.65;;;15.10;26.00;;;;;;4961770;28;20039;-85
2024/03/31 09:07:32;;;;;;;1.67;1.58;;;14.90;72.60;;;;;;4975978;28;20038;-78
2024/03/31 09:09:58;;;;;;;0.65;0.60;;;14.80;92.80;;;;;;4988673;28;20030;-76
2024/03/31 09:12:25;;;;;;;6.22;1.27;;;14.70;99.90;;;;;;4994421;28;20034;-83
2024/03/31 09:14:51;;;;;;;1.20;1.13;;;14.50;99.90;;;;;;4983583;28;20712;-84
2024/03/31 09:17:17;;;;;;;1.92;0.88;;;14.50;99.90;;;;;;4987991;28;20067;-85
2024/03/31 09:19:43;;;;;;;0.77;0.77;;;14.60;99.90;;;;;;5014125;28;20037;-83
2024/03/31 09:22:13;;;;;;;0.20;0.20;;;14.70;93.10;;;;;;4994426;28;20038;-83
2024/03/31 09:24:42;;;;;;;0.60;0.55;;;15.00;13.60;;;;;;4979779;28;20038;-81
2024/03/31 09:27:09;;;;;;;0.70;0.70;;;15.20;4.00;;;;;;4997252;28;20041;-85
2024/03/31 09:29:41;;;;;;;0.38;0.32;;;15.40;1.00;;;;;;4997825;28;20446;-87
2024/03/31 09:32:10;;;;;;;2.30;1.35;;;16.10;1.00;;;;;;5011338;28;20033;-86
2024/03/31 09:34:41;;;;;;;5.90;2.10;;;16.30;1.00;;;;;;4989608;28;20038;-82
2024/03/31 09:37:09;;;;;;;5.63;1.73;;;16.30;99.90;;;;;;4996992;28;20048;-85
2024/03/31 09:39:36;;;;;;;1.35;1.25;;;16.20;1.00;;;;;;4985164;28;20038;-84
2024/03/31 09:42:02;;;;;;;1.88;1.70;;;16.50;1.00;;;;;;4979545;28;20038;-84
2024/03/31 09:44:29;;;;;;;3.80;1.48;;;16.20;99.90;;;;;;4995492;28;20037;-84
2024/03/31 09:46:55;;;;;;;2.15;1.70;;;16.00;1.00;;;;;;4996327;28;20471;-85
2024/03/31 09:49:37;;;;;;;4.22;1.27;;;15.60;1.00;;;;;;4979854;28;20038;-85
2024/03/31 09:52:07;;;;;;;2.30;1.30;;;15.60;1.00;;;;;;4984785;28;20041;-85
2024/03/31 09:54:42;;;;;;;10.77;1.40;;;16.10;1.00;;;;;;4997627;28;20110;-90
2024/03/31 09:57:12;;;;;;;8.27;3.65;;;16.20;99.90;;;;;;4991279;28;20046;-85
2024/03/31 09:59:47;;;;;;;1.20;1.10;;;15.90;1.00;;;;;;5009797;28;20033;-86
2024/03/31 10:02:15;;;;;;;1.33;1.10;;;15.50;1.00;;;;;;5005382;28;20044;-83
2024/03/31 10:04:59;;;;;;;1.67;1.58;;;15.40;1.00;;;;;;4979052;28;20486;-84
2024/03/31 10:07:26;;;;;;;0.82;0.70;;;15.20;1.00;;;;;;4992966;28;20049;-83
2024/03/31 10:09:54;;;;;;;2.40;1.40;;;15.20;1.00;;;;;;5012981;28;20022;-83
2024/03/31 10:12:22;;;;;;;1.27;0.80;;;15.70;1.00;;;;;;5013837;28;20026;-82
2024/03/31 10:14:49;;;;;;;2.60;1.55;;;16.50;99.90;;;;;;4969245;28;20053;-82
2024/03/31 10:17:16;;;;;;;1.70;1.00;;;16.70;99.90;;;;;;4973446;28;20057;-82
2024/03/31 10:19:44;;;;;;;2.17;1.65;;;17.20;80.50;;;;;;4981105;28;20038;-83
2024/03/31 10:22:14;;;;;;;5.47;2.08;;;17.00;99.90;;;;;;5002628;28;20030;-82
2024/03/31 10:24:41;;;;;;;4.60;1.17;;;17.50;46.70;;;;;;4983530;28;20043;-83
2024/03/31 10:27:08;;;;;;;3.83;0.90;;;17.40;1.00;;;;;;4997093;28;20054;-83
2024/03/31 10:29:35;;;;;;;1.75;1.30;;;17.40;1.00;;;;;;4976463;28;20054;-83
2024/03/31 10:32:01;;;;;;;0.80;0.73;;;17.50;1.00;;;;;;5003606;28;20026;-83
2024/03/31 10:34:28;;;;;;;2.42;0.95;;;17.70;1.00;;;;;;4974192;28;20042;-83
2024/03/31 10:36:55;;;;;;;0.82;0.77;;;17.20;1.00;;;;;;4975185;28;20034;-84
2024/03/31 10:39:23;;;;;;;1.30;1.20;;;17.10;1.00;;;;;;4994561;28;20054;-82
2024/03/31 10:41:50;;;;;;;12.80;2.78;;;17.50;1.00;;;;;;4972710;28;20034;-82
2024/03/31 10:44:17;;;;;;;0.43;0.43;;;17.50;1.00;;;;;;4976601;28;20390;-85
2024/03/31 10:46:44;;;;;;;0.73;0.73;;;17.50;1.00;;;;;;4991484;28;20486;-83
2024/03/31 10:49:10;;;;;;;0.30;0.30;;;17.50;1.00;;;;;;4974083;28;20030;-84
2024/03/31 10:51:41;;;;;;;6.50;2.67;;;17.90;99.90;;;;;;4993790;28;20034;-84
2024/03/31 10:54:46;;;;;;;0.60;0.60;;;18.10;99.90;;;;;;4978697;28;20038;-84
2024/03/31 10:57:13;;;;;;;4.85;1.88;;;18.40;99.90;;;;;;4906697;29;20054;-83
2024/03/31 10:59:40;;;;;;;19.75;1.73;;;18.50;99.90;;;;;;4916388;29;20408;-83
2024/03/31 11:02:11;;;;;;;1.88;1.10;;;18.50;99.90;;;;;;4910178;29;20133;-83
2024/03/31 11:04:38;;;;;;;0.75;0.35;;;18.90;99.90;;;;;;4913136;29;20055;-85
2024/03/31 11:07:10;;;;;;;0.95;0.85;;;18.60;99.90;;;;;;4901231;29;20047;-84
2024/03/31 11:09:38;;;;;;;1.35;0.35;;;18.70;99.90;;;;;;4898128;29;20377;-84
2024/03/31 11:12:06;;;;;;;0.93;0.90;;;19.00;99.90;;;;;;4913585;29;20075;-83
2024/03/31 11:14:34;;;;;;;1.08;1.00;;;19.00;99.90;;;;;;4907401;29;20043;-83
2024/03/31 11:17:01;;;;;;;16.08;2.00;;;18.40;1.00;;;;;;4929351;29;20048;-82
2024/03/31 11:19:28;;;;;;;0.63;0.30;;;18.10;1.00;;;;;;4919403;29;20043;-82
2024/03/31 11:22:02;;;;;;;0.93;0.80;;;17.80;1.00;;;;;;4931844;29;20055;-83
2024/03/31 11:24:29;;;;;;;0.43;0.43;;;17.70;1.00;;;;;;4916147;29;20043;-83
2024/03/31 11:26:56;;;;;;;4.78;1.13;;;18.10;1.00;;;;;;4917959;28;20043;-80
2024/03/31 11:29:22;;;;;;;0.85;0.82;;;18.60;1.00;;;;;;4992922;28;20027;-83
2024/03/31 11:31:49;;;;;;;1.00;0.77;;;18.40;1.00;;;;;;4991949;28;20035;-82
2024/03/31 11:34:17;;;;;;;0.20;0.20;;;18.40;1.00;;;;;;4970386;28;20054;-83
2024/03/31 11:36:45;;;;;;;0.57;0.57;;;17.90;1.00;;;;;;4968322;28;20475;-84
2024/03/31 11:39:12;;;;;;;0.70;0.70;;;17.90;1.00;;;;;;4992031;28;20599;-81
2024/03/31 11:41:39;;;;;;;0.32;0.32;;;18.00;1.00;;;;;;4969677;28;20480;-83
2024/03/31 11:44:05;;;;;;;0.60;0.60;;;18.40;1.00;;;;;;4953659;28;20026;-83
2024/03/31 11:46:31;;;;;;;0.52;0.52;;;18.70;1.00;;;;;;4989641;28;20049;-84
2024/03/31 11:48:58;;;;;;;9.63;0.63;;;18.70;1.00;;;;;;4974379;28;20041;-83
2024/03/31 11:51:26;;;;;;;8.45;2.72;;;18.80;1.00;;;;;;4974643;28;20041;-83
2024/03/31 11:53:53;;;;;;;1.25;0.77;;;18.60;1.00;;;;;;4972971;28;20045;-83
2024/03/31 11:56:20;;;;;;;1.73;1.27;;;18.70;99.90;;;;;;4966549;28;20486;-82
2024/03/31 11:58:46;;;;;;;9.60;2.28;;;18.50;99.90;;;;;;4975804;28;20046;-83
2024/03/31 12:01:17;;;;;;;0.63;0.63;;;18.30;99.90;;;;;;4987742;28;20023;-83
2024/03/31 12:03:43;;;;;;;0.60;0.60;;;18.30;1.00;;;;;;4957769;28;20337;-82
2024/03/31 12:06:11;;;;;;;0.52;0.52;;;18.50;99.90;;;;;;4972014;28;20034;-84
2024/03/31 12:08:37;;;;;;;0.50;0.47;;;18.80;99.90;;;;;;4955569;28;20039;-83
2024/03/31 12:11:05;;;;;;;0.50;0.50;;;19.10;99.90;;;;;;4971583;28;20030;-84
2024/03/31 12:13:31;;;;;;;0.40;0.40;;;18.90;99.90;;;;;;4972728;28;20031;-82
2024/03/31 12:15:57;;;;;;;4.63;2.33;;;18.70;99.90;;;;;;4974547;28;20301;-83
2024/03/31 12:18:24;;;;;;;1.55;1.13;;;18.50;99.90;;;;;;4980313;28;20038;-82
2024/03/31 12:20:51;;;;;;;1.10;1.02;;;18.60;99.90;;;;;;4973044;28;20053;-82
2024/03/31 12:23:18;;;;;;;3.03;1.13;;;19.00;99.90;;;;;;4992241;28;20035;-83
2024/03/31 12:25:44;;;;;;;2.38;1.08;;;19.20;99.90;;;;;;4992045;28;20033;-84
2024/03/31 12:28:11;;;;;;;0.32;0.32;;;19.20;99.90;;;;;;4971588;28;20395;-83
2024/03/31 12:30:41;;;;;;;0.73;0.68;;;19.20;99.90;;;;;;4991523;28;20026;-84
2024/03/31 12:33:08;;;;;;;;;;;19.20;99.90;;;;;;4991775;28;20041;-84
2024/03/31 12:35:34;;;;;;;17.42;2.65;;;19.30;99.90;;;;;;4991615;28;19902;-84
2024/03/31 12:38:00;;;;;;;4.25;1.05;;;19.30;99.90;;;;;;4970188;28;20050;-82
2024/03/31 12:40:26;;;;;;;2.90;1.27;;;19.40;99.90;;;;;;4957860;28;20038;-82
2024/03/31 12:42:54;;;;;;;0.80;0.65;;;19.50;99.90;;;;;;4973141;28;20041;-83
2024/03/31 12:45:21;;;;;;;8.88;2.35;;;19.80;99.90;;;;;;4969808;28;20049;-82
2024/03/31 12:47:52;;;;;;;4.50;2.10;;;20.00;99.90;;;;;;4971952;28;20042;-83
2024/03/31 12:50:23;;;;;;;1.83;1.42;;;19.90;99.90;;;;;;4969473;28;20042;-83
2024/03/31 12:52:49;;;;;;;0.90;0.88;;;20.10;99.90;;;;;;4970137;28;20398;-82